Time;durP1;ratioP1;P1;durP2;ratioP2;P2;SDS_P1;SDS_P2;PMS_P1;PMS_P2;Temp;Humidity;BMP_temperature;BMP_pressure;BME280_temperature;BME280_humidity;BME280_pressure;Samples;Min_cycle;Max_cycle;Signal;HPM_P1;HPM_P2
2021/03/05 00:00:38;;;;;;;25.40;10.00;;;4.60;79.50;3.30;102208.00;;;;5005837;28;20296;-72
2021/03/05 00:03:06;;;;;;;26.65;11.07;;;4.60;79.80;3.20;102204.00;;;;4991100;28;20038;-72
2021/03/05 00:05:35;;;;;;;21.90;9.35;;;4.50;79.90;3.30;102208.00;;;;5007317;28;20053;-72
2021/03/05 00:08:02;;;;;;;17.73;6.45;;;4.60;79.20;3.30;102228.00;;;;4991118;28;20196;-72
2021/03/05 00:10:32;;;;;;;18.88;6.53;;;4.60;80.10;3.20;102220.00;;;;4991361;28;20108;-72
2021/03/05 00:12:58;;;;;;;26.77;7.53;;;4.50;81.50;3.30;102228.00;;;;5007977;28;20042;-72
2021/03/05 00:15:28;;;;;;;19.67;7.20;;;4.50;80.20;3.30;102218.00;;;;4977038;28;20077;-72
2021/03/05 00:17:54;;;;;;;14.63;5.97;;;4.50;80.60;3.30;102230.00;;;;4996756;28;20092;-72
2021/03/05 00:20:25;;;;;;;24.50;6.88;;;4.60;80.60;3.30;102226.00;;;;4991478;28;20185;-72
2021/03/05 00:22:51;;;;;;;20.10;5.82;;;4.60;80.60;3.30;102236.00;;;;4993005;28;20130;-72
2021/03/05 00:25:17;;;;;;;24.15;6.50;;;4.90;81.40;3.30;102229.00;;;;4989698;28;20081;-72
2021/03/05 00:27:43;;;;;;;15.07;5.43;;;4.60;80.80;3.30;102241.00;;;;5006785;28;20045;-72
2021/03/05 00:30:09;;;;;;;18.30;5.93;;;4.60;80.80;3.30;102252.00;;;;4988518;28;20128;-72
2021/03/05 00:32:36;;;;;;;17.40;5.32;;;4.60;80.80;3.30;102234.00;;;;4990153;28;20037;-72
2021/03/05 00:35:09;;;;;;;21.13;6.13;;;4.60;81.20;3.30;102240.00;;;;5007334;28;20068;-72
2021/03/05 00:37:36;;;;;;;21.83;6.03;;;4.60;80.10;3.30;102247.00;;;;4991989;28;20048;-72
2021/03/05 00:40:10;;;;;;;16.13;6.90;;;4.60;81.30;3.30;102245.00;;;;4985708;28;20104;-72
2021/03/05 00:42:36;;;;;;;17.02;7.20;;;4.60;80.70;3.30;102250.00;;;;5006779;28;20046;-72
2021/03/05 00:45:05;;;;;;;26.10;7.40;;;4.50;81.30;3.40;102248.00;;;;5005728;28;20038;-72
2021/03/05 00:47:30;;;;;;;22.08;7.50;;;4.60;81.80;3.30;102248.00;;;;5012431;28;20578;-73
2021/03/05 00:49:57;;;;;;;15.88;7.43;;;4.60;82.10;3.30;102255.00;;;;4977096;28;20531;-73
2021/03/05 00:52:24;;;;;;;18.63;7.68;;;4.60;82.20;3.30;102245.00;;;;4996356;28;20066;-74
2021/03/05 00:54:50;;;;;;;19.08;9.07;;;4.60;81.60;3.30;102258.00;;;;4991939;28;21883;-71
2021/03/05 00:57:16;;;;;;;16.88;9.55;;;4.60;83.30;3.30;102260.00;;;;4995359;28;20038;-71
2021/03/05 00:59:42;;;;;;;21.75;10.25;;;4.50;82.60;3.30;102259.00;;;;4993160;28;20048;-72
2021/03/05 01:02:08;;;;;;;20.98;10.98;;;4.60;82.10;3.30;102254.00;;;;4991666;28;20141;-71
2021/03/05 01:04:34;;;;;;;21.10;9.85;;;4.60;82.10;3.30;102262.00;;;;4993243;28;20088;-71
2021/03/05 01:07:00;;;;;;;15.65;9.60;;;5.00;82.10;3.40;102273.00;;;;4980140;28;20115;-71
2021/03/05 01:09:29;;;;;;;18.90;10.75;;;4.60;81.40;3.30;102266.00;;;;5013223;28;20042;-71
2021/03/05 01:11:55;;;;;;;21.25;10.77;;;4.60;82.40;3.30;102279.00;;;;4974445;28;20063;-71
2021/03/05 01:14:21;;;;;;;22.55;10.48;;;4.50;82.30;3.30;102267.00;;;;4993900;28;20046;-73
2021/03/05 01:16:47;;;;;;;19.90;10.13;;;4.50;82.00;3.30;102281.00;;;;4976468;28;20049;-71
2021/03/05 01:19:14;;;;;;;17.55;10.10;;;4.50;81.40;3.30;102270.00;;;;4995329;28;20038;-71
2021/03/05 01:21:40;;;;;;;18.75;11.07;;;4.60;81.90;3.30;102282.00;;;;5015124;28;20045;-71
2021/03/05 01:24:08;;;;;;;22.77;11.35;;;4.50;82.30;3.30;102278.00;;;;4994634;28;20037;-71
2021/03/05 01:26:34;;;;;;;19.33;11.70;;;4.50;81.50;3.20;102286.00;;;;5008546;28;20045;-71
2021/03/05 01:29:01;;;;;;;19.73;10.98;;;4.50;82.40;3.20;102285.00;;;;5007261;28;20053;-71
2021/03/05 01:31:26;;;;;;;21.13;10.38;;;4.40;82.10;3.20;102295.00;;;;4993311;28;20058;-71
2021/03/05 01:33:53;;;;;;;21.48;11.63;;;4.40;82.80;3.10;102293.00;;;;4997466;28;20104;-72
2021/03/05 01:36:19;;;;;;;20.63;11.07;;;4.40;82.70;3.10;102290.00;;;;4988654;28;20045;-72
2021/03/05 01:38:44;;;;;;;21.50;10.98;;;4.30;81.80;3.10;102291.00;;;;4995839;28;20493;-72
2021/03/05 01:41:10;;;;;;;20.80;11.23;;;4.40;81.60;3.10;102282.00;;;;4994651;28;20684;-72
2021/03/05 01:43:40;;;;;;;19.50;11.07;;;4.30;81.90;3.00;102294.00;;;;4996938;28;20487;-72
2021/03/05 01:46:07;;;;;;;23.48;12.63;;;4.30;82.80;3.00;102285.00;;;;4992208;28;20120;-72
2021/03/05 01:48:33;;;;;;;18.13;11.13;;;4.30;82.60;2.90;102287.00;;;;4988014;28;20057;-72
2021/03/05 01:51:12;;;;;;;18.67;10.75;;;4.20;81.90;2.90;102284.00;;;;4989559;28;20474;-72
2021/03/05 01:53:41;;;;;;;21.10;10.98;;;4.20;82.40;2.80;102290.00;;;;4993634;28;20050;-72
2021/03/05 01:56:09;;;;;;;19.83;10.73;;;4.10;82.10;2.70;102304.00;;;;5007648;28;20029;-72
2021/03/05 01:58:36;;;;;;;17.30;9.68;;;4.10;82.70;2.70;102296.00;;;;4990744;28;20041;-72
2021/03/05 02:01:08;;;;;;;18.95;9.98;;;4.00;83.10;2.60;102304.00;;;;4993979;28;20858;-72
2021/03/05 02:03:35;;;;;;;19.98;9.93;;;4.00;83.00;2.60;102304.00;;;;4997467;28;20549;-71
2021/03/05 02:06:02;;;;;;;17.40;10.38;;;4.00;82.90;2.60;102299.00;;;;4990163;28;20045;-71
2021/03/05 02:08:28;;;;;;;17.40;10.07;;;3.90;82.00;2.50;102305.00;;;;5003466;28;20097;-72
2021/03/05 02:10:54;;;;;;;18.35;10.23;;;3.90;82.80;2.50;102295.00;;;;5004307;28;20050;-72
2021/03/05 02:13:21;;;;;;;17.77;9.90;;;3.80;82.90;2.40;102305.00;;;;4998121;28;20041;-72
2021/03/05 02:15:47;;;;;;;20.50;10.25;;;3.80;83.20;2.40;102312.00;;;;5005542;28;20048;-71
2021/03/05 02:18:24;;;;;;;17.88;10.05;;;3.70;83.10;2.30;102329.00;;;;4997455;28;20058;-71
2021/03/05 02:21:57;;;;;;;17.25;8.80;;;3.70;83.20;2.20;102315.00;;;;4973950;28;20041;-71
2021/03/05 02:25:03;;;;;;;20.13;9.68;;;3.70;83.30;2.10;102322.00;;;;4951914;28;20047;-71
2021/03/05 02:27:55;;;;;;;16.45;9.63;;;3.50;83.10;2.00;102332.00;;;;4999233;28;20636;-71
2021/03/05 02:30:50;;;;;;;18.55;9.18;;;3.50;83.20;2.00;102326.00;;;;4983765;28;20621;-71
2021/03/05 02:33:27;;;;;;;17.08;9.57;;;3.40;82.50;1.90;102329.00;;;;4973273;28;20069;-71
2021/03/05 02:35:57;;;;;;;14.82;9.45;;;3.40;83.50;1.90;102333.00;;;;4982285;28;20180;-71
2021/03/05 02:38:27;;;;;;;16.52;10.02;;;3.30;82.60;1.90;102332.00;;;;4975253;28;20070;-72
2021/03/05 02:40:54;;;;;;;15.07;9.13;;;3.30;82.50;1.80;102345.00;;;;4988909;28;20073;-71
2021/03/05 02:43:23;;;;;;;15.00;9.27;;;3.30;83.50;1.80;102341.00;;;;4990150;28;20046;-72
2021/03/05 02:45:58;;;;;;;15.90;8.93;;;3.20;83.50;1.70;102339.00;;;;4992999;28;20042;-72
2021/03/05 02:48:33;;;;;;;16.40;9.07;;;3.20;83.70;1.70;102338.00;;;;4989798;28;20057;-72
2021/03/05 02:51:02;;;;;;;13.57;8.38;;;3.10;84.00;1.60;102357.00;;;;5003084;28;20116;-71
2021/03/05 02:53:30;;;;;;;13.68;8.00;;;3.00;82.70;1.60;102354.00;;;;5004888;28;20037;-72
2021/03/05 02:56:03;;;;;;;15.85;8.90;;;4.50;84.40;1.50;102339.00;;;;4970435;28;20578;-71
2021/03/05 02:58:31;;;;;;;14.75;8.55;;;5.90;85.30;1.50;102350.00;;;;4993950;28;20042;-71
2021/03/05 03:00:57;;;;;;;15.68;8.70;;;3.00;83.70;1.40;102361.00;;;;4994801;28;20038;-71
2021/03/05 03:03:25;;;;;;;19.10;9.80;;;2.90;83.20;1.40;102369.00;;;;4985500;28;20056;-72
2021/03/05 03:05:52;;;;;;;16.33;9.05;;;3.60;84.40;1.40;102367.00;;;;4992021;28;20034;-71
2021/03/05 03:08:19;;;;;;;15.55;9.02;;;2.80;83.60;1.40;102383.00;;;;5005512;28;20120;-72
2021/03/05 03:10:47;;;;;;;15.88;9.65;;;2.80;83.20;1.30;102376.00;;;;4999260;28;20073;-71
2021/03/05 03:13:14;;;;;;;16.88;8.85;;;2.80;83.90;1.30;102387.00;;;;4980735;28;20049;-72
2021/03/05 03:15:41;;;;;;;21.45;9.63;;;2.80;84.30;1.20;102383.00;;;;5007809;28;20362;-72
2021/03/05 03:18:11;;;;;;;16.33;9.27;;;2.90;83.50;1.20;102381.00;;;;5008608;28;20049;-72
2021/03/05 03:20:39;;;;;;;17.52;9.02;;;2.70;84.30;1.20;102372.00;;;;5009208;28;20069;-72
2021/03/05 03:23:06;;;;;;;15.07;8.40;;;2.60;84.30;1.20;102377.00;;;;5003843;28;20093;-73
2021/03/05 03:25:33;;;;;;;14.75;9.30;;;2.60;84.20;1.10;102378.00;;;;4981402;28;21242;-71
2021/03/05 03:27:59;;;;;;;18.85;9.57;;;2.60;84.50;1.10;102377.00;;;;4975991;28;20443;-71
2021/03/05 03:30:25;;;;;;;21.55;9.27;;;2.50;83.60;1.10;102393.00;;;;4967964;28;20128;-72
2021/03/05 03:32:53;;;;;;;16.45;9.68;;;2.60;84.60;1.00;102390.00;;;;4965460;28;20409;-71
2021/03/05 03:35:20;;;;;;;18.75;9.23;;;2.50;84.60;1.00;102394.00;;;;4967161;28;20035;-71
2021/03/05 03:37:46;;;;;;;17.02;9.52;;;2.40;83.90;1.00;102395.00;;;;4980708;28;20049;-72
2021/03/05 03:40:19;;;;;;;19.15;9.68;;;2.40;83.90;0.90;102392.00;;;;4987528;28;20046;-72
2021/03/05 03:42:47;;;;;;;18.13;8.90;;;2.40;85.00;0.80;102409.00;;;;4971633;28;20110;-71
2021/03/05 03:45:14;;;;;;;15.32;9.85;;;2.30;85.20;0.80;102398.00;;;;4979515;28;20498;-72
2021/03/05 03:47:41;;;;;;;15.55;9.05;;;2.30;84.90;0.80;102407.00;;;;4996852;28;20593;-72
2021/03/05 03:50:13;;;;;;;20.70;10.52;;;2.30;84.90;0.70;102408.00;;;;4999338;28;20117;-72
2021/03/05 03:52:39;;;;;;;20.48;9.82;;;2.30;84.80;0.70;102414.00;;;;4995667;28;20054;-71
2021/03/05 03:55:08;;;;;;;19.08;9.45;;;2.20;84.00;0.70;102413.00;;;;4974689;28;20046;-72
2021/03/05 03:57:45;;;;;;;16.80;8.98;;;2.20;85.10;0.60;102417.00;;;;4977163;28;20469;-72
2021/03/05 04:00:14;;;;;;;17.83;9.13;;;2.20;84.60;0.60;102417.00;;;;4970307;28;20046;-72
2021/03/05 04:02:42;;;;;;;18.58;9.00;;;2.20;85.10;0.60;102427.00;;;;4996396;28;20030;-72
2021/03/05 04:05:12;;;;;;;17.33;9.20;;;2.10;83.70;0.60;102415.00;;;;4957163;28;20113;-72
2021/03/05 04:07:42;;;;;;;17.38;9.13;;;2.10;83.90;0.60;102422.00;;;;4991152;28;20054;-72
2021/03/05 04:10:09;;;;;;;16.70;9.48;;;2.10;84.50;0.50;102419.00;;;;4993170;28;20568;-72
2021/03/05 04:12:35;;;;;;;23.35;9.93;;;2.10;84.80;0.50;102424.00;;;;4992031;28;20097;-72
2021/03/05 04:15:02;;;;;;;16.40;8.57;;;2.00;84.60;0.50;102417.00;;;;4970653;28;20055;-72
2021/03/05 04:17:28;;;;;;;17.02;9.02;;;2.00;84.70;0.40;102425.00;;;;4977065;28;20045;-72
2021/03/05 04:19:55;;;;;;;14.15;8.43;;;2.00;84.60;0.40;102430.00;;;;4975023;28;20528;-72
2021/03/05 04:22:23;;;;;;;15.38;8.75;;;2.30;85.00;0.40;102438.00;;;;4987688;28;20174;-73
2021/03/05 04:24:49;;;;;;;16.50;8.95;;;1.90;84.70;0.40;102447.00;;;;5000212;28;20404;-73
2021/03/05 04:27:15;;;;;;;14.90;7.82;;;1.90;84.60;0.30;102436.00;;;;4997105;28;20049;-72
2021/03/05 04:29:41;;;;;;;15.02;7.50;;;1.90;84.50;0.30;102437.00;;;;4993045;28;20049;-72
2021/03/05 04:32:07;;;;;;;14.13;7.82;;;1.80;84.40;0.30;102451.00;;;;5005256;28;20077;-72
2021/03/05 04:34:33;;;;;;;13.35;7.88;;;1.80;84.30;0.30;102452.00;;;;4985348;28;20056;-73
2021/03/05 04:37:00;;;;;;;15.07;6.97;;;1.80;84.10;0.20;102454.00;;;;4993287;28;20049;-72
2021/03/05 04:39:26;;;;;;;12.55;7.38;;;1.70;82.80;0.30;102446.00;;;;4984673;28;20041;-73
2021/03/05 04:41:52;;;;;;;14.35;7.00;;;1.70;83.70;0.20;102450.00;;;;4994875;28;20129;-73
2021/03/05 04:44:19;;;;;;;11.15;6.47;;;1.70;83.60;0.20;102457.00;;;;4997703;28;20496;-72
2021/03/05 04:46:45;;;;;;;12.37;6.53;;;1.80;83.60;0.20;102458.00;;;;4994491;28;20042;-72
2021/03/05 04:49:11;;;;;;;14.02;5.97;;;1.70;83.10;0.20;102457.00;;;;4994863;28;20648;-73
2021/03/05 04:51:36;;;;;;;12.80;6.07;;;1.70;83.10;0.20;102476.00;;;;4993264;28;20235;-73
2021/03/05 04:54:03;;;;;;;9.98;5.32;;;1.70;81.90;0.10;102491.00;;;;4990932;28;20042;-73
2021/03/05 04:56:29;;;;;;;12.45;6.15;;;1.60;82.90;0.10;102488.00;;;;5005021;28;20041;-72
2021/03/05 04:58:55;;;;;;;11.38;5.78;;;1.70;82.90;0.10;102484.00;;;;5010944;28;20042;-73
2021/03/05 05:01:21;;;;;;;14.57;5.85;;;1.60;82.60;0.10;102486.00;;;;4989279;28;20046;-73
2021/03/05 05:03:47;;;;;;;9.52;5.22;;;1.60;82.40;0.10;102482.00;;;;4995053;28;20050;-73
2021/03/05 05:06:13;;;;;;;10.30;5.18;;;1.60;82.40;0.10;102474.00;;;;5009795;28;20046;-73
2021/03/05 05:08:40;;;;;;;11.00;6.10;;;1.50;81.20;0.00;102482.00;;;;5008056;28;20053;-72
2021/03/05 05:11:06;;;;;;;10.90;5.30;;;1.60;82.30;0.00;102486.00;;;;4992827;28;20053;-73
2021/03/05 05:13:32;;;;;;;9.73;5.20;;;1.50;82.40;0.00;102485.00;;;;4995718;28;20828;-73
2021/03/05 05:15:58;;;;;;;10.75;5.57;;;1.50;82.10;0.00;102495.00;;;;4995475;28;20105;-73
2021/03/05 05:18:25;;;;;;;9.38;5.35;;;1.50;82.10;0.00;102496.00;;;;4965267;28;20092;-73
2021/03/05 05:20:50;;;;;;;7.70;4.60;;;1.50;82.10;-0.10;102502.00;;;;4993848;28;20056;-73
2021/03/05 05:23:16;;;;;;;12.48;5.47;;;1.50;82.00;-0.10;102496.00;;;;4995857;28;20053;-73
2021/03/05 05:25:42;;;;;;;9.27;5.22;;;1.40;81.70;-0.10;102498.00;;;;4981976;28;20074;-73
2021/03/05 05:28:08;;;;;;;11.88;4.25;;;1.40;82.10;-0.20;102503.00;;;;4975634;28;20515;-73
2021/03/05 05:30:34;;;;;;;9.15;4.53;;;1.40;82.00;-0.20;102508.00;;;;4969442;28;20100;-73
2021/03/05 05:33:00;;;;;;;12.73;5.13;;;1.30;81.30;-0.30;102507.00;;;;4991837;28;20046;-73
2021/03/05 05:35:26;;;;;;;11.40;5.18;;;1.30;81.80;-0.30;102513.00;;;;4989907;28;20033;-72
2021/03/05 05:37:52;;;;;;;10.35;5.13;;;1.20;80.60;-0.40;102515.00;;;;4989717;28;20253;-73
2021/03/05 05:40:18;;;;;;;9.65;5.03;;;1.20;80.80;-0.40;102515.00;;;;4994440;28;20604;-73
2021/03/05 05:42:48;;;;;;;11.85;5.07;;;1.20;81.70;-0.40;102528.00;;;;4996054;28;20048;-73
2021/03/05 05:45:15;;;;;;;8.57;4.82;;;1.20;81.80;-0.40;102520.00;;;;4992617;28;20620;-72
2021/03/05 05:47:43;;;;;;;10.88;5.03;;;1.10;81.80;-0.40;102519.00;;;;4998066;28;20058;-72
2021/03/05 05:50:10;;;;;;;10.57;5.25;;;1.10;82.00;-0.50;102520.00;;;;4999259;28;20050;-73
2021/03/05 05:52:36;;;;;;;11.20;5.22;;;1.10;82.00;-0.50;102522.00;;;;5003060;28;20048;-73
2021/03/05 05:55:05;;;;;;;13.55;5.95;;;1.00;81.10;-0.60;102527.00;;;;4995854;28;20135;-73
2021/03/05 05:57:34;;;;;;;12.85;6.03;;;1.00;82.10;-0.60;102524.00;;;;4991610;28;20923;-73
2021/03/05 06:00:00;;;;;;;9.75;5.07;;;1.00;82.30;-0.60;102522.00;;;;4976020;28;20046;-73
2021/03/05 06:02:28;;;;;;;10.70;5.97;;;1.90;82.80;-0.60;102539.00;;;;4987447;28;20046;-73
2021/03/05 06:04:55;;;;;;;10.90;5.50;;;1.00;82.40;-0.70;102542.00;;;;4974780;28;20988;-73
2021/03/05 06:07:23;;;;;;;9.20;5.40;;;0.90;81.20;-0.70;102537.00;;;;4951916;28;20050;-72
2021/03/05 06:09:50;;;;;;;10.00;4.97;;;0.90;83.40;-0.70;102540.00;;;;4982851;28;20046;-73
2021/03/05 06:12:17;;;;;;;9.95;5.55;;;0.90;82.40;-0.70;102550.00;;;;4974945;28;20468;-73
2021/03/05 06:14:44;;;;;;;15.63;5.22;;;0.90;82.30;-0.70;102556.00;;;;4986619;28;20106;-73
2021/03/05 06:17:10;;;;;;;10.00;5.30;;;1.00;81.30;-0.70;102555.00;;;;4977223;28;20070;-73
2021/03/05 06:19:37;;;;;;;9.82;5.25;;;0.90;82.20;-0.70;102563.00;;;;4977770;28;20052;-73
2021/03/05 06:22:21;;;;;;;8.45;4.93;;;0.90;82.20;-0.70;102571.00;;;;4968553;28;20045;-73
2021/03/05 06:24:48;;;;;;;10.85;5.20;;;0.90;81.10;-0.60;102577.00;;;;4992483;28;20140;-73
2021/03/05 06:27:16;;;;;;;13.85;5.40;;;0.90;81.00;-0.60;102576.00;;;;4979943;28;20786;-73
2021/03/05 06:29:48;;;;;;;8.65;5.07;;;0.80;82.00;-0.60;102580.00;;;;5012950;28;20408;-73
2021/03/05 06:32:16;;;;;;;10.07;4.70;;;0.90;81.90;-0.60;102592.00;;;;4994433;28;20050;-73
2021/03/05 06:34:54;;;;;;;7.82;4.13;;;0.90;81.40;-0.60;102592.00;;;;4992866;28;20053;-73
2021/03/05 06:37:25;;;;;;;11.60;4.53;;;1.00;80.60;-0.60;102595.00;;;;4994273;28;20133;-73
2021/03/05 06:40:05;;;;;;;11.63;4.60;;;1.00;80.30;-0.50;102598.00;;;;4992491;28;20176;-73
2021/03/05 06:42:56;;;;;;;10.35;4.35;;;1.00;80.20;-0.50;102596.00;;;;4995984;28;20046;-72
2021/03/05 06:45:35;;;;;;;9.30;3.97;;;1.00;79.50;-0.50;102608.00;;;;4994970;28;20048;-74
2021/03/05 06:48:09;;;;;;;11.27;4.05;;;1.00;79.30;-0.50;102623.00;;;;4988841;28;20049;-71
2021/03/05 06:50:42;;;;;;;8.48;3.45;;;1.00;80.70;-0.40;102623.00;;;;5004282;28;20060;-71
2021/03/05 06:53:22;;;;;;;8.60;4.40;;;1.10;79.50;-0.40;102614.00;;;;5006613;28;20142;-70
2021/03/05 06:55:48;;;;;;;10.32;4.05;;;1.10;81.70;-0.30;102614.00;;;;4990832;28;20049;-70
2021/03/05 06:58:14;;;;;;;7.25;3.90;;;1.10;79.60;-0.30;102630.00;;;;4994405;28;20049;-70
2021/03/05 07:00:42;;;;;;;10.13;4.10;;;1.10;79.50;-0.20;102626.00;;;;4993418;28;20639;-70
2021/03/05 07:03:22;;;;;;;5.95;3.30;;;1.30;80.30;-0.20;102634.00;;;;4987778;28;20034;-70
2021/03/05 07:05:53;;;;;;;7.15;3.72;;;1.30;80.40;-0.10;102627.00;;;;5006787;28;20049;-71
2021/03/05 07:08:42;;;;;;;8.10;4.10;;;1.40;79.00;0.00;102649.00;;;;4994069;28;20069;-71
2021/03/05 07:11:31;;;;;;;9.73;4.30;;;1.40;78.70;0.10;102647.00;;;;4993531;28;20060;-71
2021/03/05 07:13:57;;;;;;;7.80;3.53;;;1.50;80.00;0.20;102651.00;;;;5011100;28;20841;-69
2021/03/05 07:16:23;;;;;;;5.95;3.40;;;1.60;78.90;0.30;102656.00;;;;4991105;28;20046;-70
2021/03/05 07:18:49;;;;;;;7.70;3.55;;;1.60;78.90;0.30;102663.00;;;;4989736;28;20050;-69
2021/03/05 07:21:18;;;;;;;8.18;3.78;;;1.80;78.50;0.40;102660.00;;;;4986463;28;20045;-69
2021/03/05 07:23:47;;;;;;;8.48;3.22;;;1.80;79.60;0.50;102660.00;;;;4974373;28;20073;-69
2021/03/05 07:26:13;;;;;;;10.20;3.70;;;1.90;79.30;0.60;102668.00;;;;4986470;28;20515;-69
2021/03/05 07:28:46;;;;;;;6.75;3.17;;;2.00;77.80;0.60;102677.00;;;;4988193;28;20136;-69
2021/03/05 07:31:15;;;;;;;8.90;3.42;;;2.00;78.10;0.80;102679.00;;;;4991971;28;20042;-69
2021/03/05 07:33:50;;;;;;;9.15;3.53;;;2.10;78.80;0.80;102674.00;;;;4988469;28;20041;-71
2021/03/05 07:36:17;;;;;;;6.75;3.10;;;2.10;77.70;0.90;102686.00;;;;5010192;28;20092;-69
2021/03/05 07:38:51;;;;;;;6.97;3.25;;;2.20;77.20;0.90;102688.00;;;;4987623;28;20531;-68
2021/03/05 07:41:21;;;;;;;7.25;2.80;;;2.30;77.10;0.90;102687.00;;;;4991915;28;20615;-69
2021/03/05 07:43:47;;;;;;;7.68;3.10;;;2.30;77.70;1.00;102692.00;;;;4995493;28;20113;-69
2021/03/05 07:46:14;;;;;;;6.22;2.88;;;2.30;77.00;1.00;102695.00;;;;4978136;28;20057;-69
2021/03/05 07:48:40;;;;;;;6.18;2.80;;;2.30;76.40;1.10;102697.00;;;;5004890;28;20483;-69
2021/03/05 07:51:06;;;;;;;6.05;3.10;;;2.40;77.50;1.20;102708.00;;;;4991518;28;20168;-70
2021/03/05 07:53:55;;;;;;;7.35;2.80;;;2.50;75.10;1.20;102711.00;;;;4997139;28;20406;-69
2021/03/05 07:56:45;;;;;;;6.95;2.95;;;2.60;75.60;1.30;102721.00;;;;5000178;28;20115;-69
2021/03/05 07:59:37;;;;;;;6.50;2.92;;;2.60;76.50;1.30;102722.00;;;;4969844;28;20769;-70
2021/03/05 08:02:04;;;;;;;9.38;3.10;;;2.60;76.90;1.40;102717.00;;;;4977444;28;20126;-70
2021/03/05 08:04:52;;;;;;;11.93;3.10;;;2.70;76.70;1.50;102716.00;;;;4990052;28;20141;-69
2021/03/05 08:07:24;;;;;;;6.53;2.90;;;2.80;73.50;1.50;102729.00;;;;4975860;28;20038;-70
2021/03/05 08:09:51;;;;;;;6.93;3.30;;;2.80;75.50;1.50;102720.00;;;;4989568;28;20711;-69
2021/03/05 08:12:43;;;;;;;6.45;2.90;;;3.60;76.20;1.60;102726.00;;;;4987827;28;20053;-70
2021/03/05 08:15:09;;;;;;;6.55;2.88;;;2.90;76.50;1.70;102732.00;;;;4978073;28;20057;-70
2021/03/05 08:17:43;;;;;;;8.63;2.65;;;3.00;76.70;1.80;102720.00;;;;4969455;28;20046;-69
2021/03/05 08:20:16;;;;;;;5.45;2.60;;;3.10;75.70;1.80;102727.00;;;;4973539;28;20084;-69
2021/03/05 08:23:06;;;;;;;7.97;3.28;;;3.10;75.00;1.90;102735.00;;;;4972585;28;20074;-70
2021/03/05 08:25:38;;;;;;;6.65;2.70;;;3.20;75.50;2.00;102739.00;;;;4976901;28;20042;-69
2021/03/05 08:28:54;;;;;;;7.80;2.70;;;3.20;75.30;2.00;102739.00;;;;4975354;28;20054;-70
2021/03/05 08:31:37;;;;;;;5.45;2.28;;;3.30;74.40;2.10;102739.00;;;;4964156;28;20050;-70
2021/03/05 08:34:32;;;;;;;4.03;2.47;;;3.30;74.10;2.10;102742.00;;;;4984346;28;20057;-70
2021/03/05 08:36:58;;;;;;;6.20;2.63;;;3.40;73.00;2.10;102743.00;;;;4980278;28;20076;-71
2021/03/05 08:39:26;;;;;;;6.57;2.42;;;3.40;73.40;2.30;102756.00;;;;4994597;28;20053;-70
2021/03/05 08:42:29;;;;;;;5.28;2.42;;;3.50;75.00;2.30;102747.00;;;;4999455;28;20149;-70
2021/03/05 08:45:21;;;;;;;6.40;2.53;;;3.50;73.60;2.40;102745.00;;;;4989742;28;20051;-71
2021/03/05 08:48:02;;;;;;;6.07;1.95;;;3.60;73.70;2.50;102766.00;;;;4974833;28;20524;-70
2021/03/05 08:50:31;;;;;;;7.85;2.50;;;3.70;74.00;2.50;102774.00;;;;5009784;28;20084;-71
2021/03/05 08:53:13;;;;;;;7.55;2.30;;;3.70;71.40;2.50;102770.00;;;;4982902;28;20128;-72
2021/03/05 08:55:41;;;;;;;7.32;2.40;;;3.80;72.50;2.50;102771.00;;;;4996264;28;20056;-71
2021/03/05 08:58:09;;;;;;;5.63;2.08;;;3.70;73.40;2.60;102766.00;;;;4997536;28;20064;-71
2021/03/05 09:00:36;;;;;;;6.90;2.58;;;3.80;73.50;2.70;102769.00;;;;4991157;28;20046;-71
2021/03/05 09:03:13;;;;;;;6.78;2.30;;;3.90;74.40;2.80;102769.00;;;;4994832;28;20033;-71
2021/03/05 09:05:49;;;;;;;6.00;2.20;;;4.00;74.50;2.80;102782.00;;;;4997429;28;20046;-71
2021/03/05 09:08:20;;;;;;;3.47;1.58;;;4.10;71.70;2.90;102783.00;;;;4996251;28;20145;-71
2021/03/05 09:10:51;;;;;;;6.22;2.15;;;4.10;74.10;2.90;102780.00;;;;4997126;28;20065;-70
2021/03/05 09:13:30;;;;;;;5.32;2.25;;;4.10;72.80;2.90;102778.00;;;;4996435;28;20141;-71
2021/03/05 09:15:59;;;;;;;5.50;2.33;;;4.10;72.80;2.90;102779.00;;;;4985942;28;20029;-71
2021/03/05 09:18:37;;;;;;;8.07;2.35;;;4.10;72.80;3.00;102781.00;;;;5003211;28;20820;-71
2021/03/05 09:21:09;;;;;;;4.57;1.83;;;4.20;73.00;3.00;102791.00;;;;5008735;28;20178;-70
2021/03/05 09:23:40;;;;;;;5.70;1.90;;;4.20;72.40;3.10;102794.00;;;;4993827;28;20053;-70
2021/03/05 09:26:09;;;;;;;6.50;2.00;;;4.50;70.20;3.10;102794.00;;;;5004266;28;22502;-71
2021/03/05 09:28:49;;;;;;;8.90;2.17;;;4.30;72.90;3.20;102791.00;;;;4993419;28;20046;-70
2021/03/05 09:31:22;;;;;;;4.53;1.90;;;4.40;73.00;3.30;102793.00;;;;4990650;28;20392;-71
2021/03/05 09:33:48;;;;;;;6.47;2.22;;;4.40;70.90;3.20;102797.00;;;;5006666;28;20572;-70
2021/03/05 09:36:16;;;;;;;6.05;1.77;;;4.30;66.40;3.20;102793.00;;;;4992811;28;20100;-71
2021/03/05 09:38:45;;;;;;;7.47;2.00;;;4.30;68.80;3.10;102788.00;;;;4991904;28;20811;-70
2021/03/05 09:41:22;;;;;;;4.60;1.65;;;4.30;70.00;3.20;102795.00;;;;4996157;28;20700;-71
2021/03/05 09:44:05;;;;;;;7.38;2.10;;;4.40;67.80;3.30;102796.00;;;;5002300;28;20069;-71
2021/03/05 09:46:33;;;;;;;4.38;2.13;;;4.50;70.60;3.30;102796.00;;;;5012501;28;20693;-72
2021/03/05 09:49:23;;;;;;;7.47;2.42;;;6.20;70.60;3.40;102810.00;;;;4996630;28;20049;-71
2021/03/05 09:51:49;;;;;;;8.82;1.98;;;4.60;68.40;3.40;102809.00;;;;4995661;28;20156;-71
2021/03/05 09:54:17;;;;;;;6.47;2.38;;;4.50;68.50;3.40;102809.00;;;;5008174;28;20041;-71
2021/03/05 09:56:49;;;;;;;9.88;2.25;;;4.60;70.60;3.50;102807.00;;;;4991237;28;20143;-71
2021/03/05 09:59:15;;;;;;;5.43;2.20;;;4.60;68.40;3.60;102809.00;;;;4976983;28;20572;-72
2021/03/05 10:01:43;;;;;;;4.57;1.95;;;4.70;68.60;3.60;102820.00;;;;4993653;28;20677;-71
2021/03/05 10:04:12;;;;;;;9.50;1.80;;;5.80;70.30;3.70;102808.00;;;;4990885;28;20613;-71
2021/03/05 10:06:38;;;;;;;5.70;1.90;;;5.00;68.20;3.90;102808.00;;;;4993474;28;20056;-71
2021/03/05 10:09:09;;;;;;;5.97;1.95;;;4.90;69.30;4.00;102807.00;;;;4991960;28;20084;-71
2021/03/05 10:11:40;;;;;;;3.58;1.67;;;5.10;66.10;4.00;102807.00;;;;4988614;28;20050;-70
2021/03/05 10:14:23;;;;;;;7.70;2.05;;;5.20;67.50;4.10;102808.00;;;;5006591;28;20500;-71
2021/03/05 10:16:49;;;;;;;5.45;1.90;;;5.30;66.00;4.30;102816.00;;;;4980226;28;20827;-71
2021/03/05 10:19:19;;;;;;;4.95;1.98;;;5.40;64.70;4.30;102813.00;;;;4993267;28;20094;-77
2021/03/05 10:21:48;;;;;;;8.05;1.98;;;5.40;65.90;4.30;102819.00;;;;5012758;28;20033;-77
2021/03/05 10:24:29;;;;;;;5.55;1.80;;;5.40;67.50;4.40;102827.00;;;;4991446;28;20484;-77
2021/03/05 10:29:51;;;;;;;4.30;1.60;;;5.60;67.20;4.60;102824.00;;;;5008113;28;20049;-77
2021/03/05 10:32:28;;;;;;;4.40;1.50;;;5.70;65.80;4.60;102823.00;;;;4995035;28;20042;-77
2021/03/05 10:35:05;;;;;;;4.43;1.50;;;5.70;65.20;4.60;102830.00;;;;4971567;28;20121;-77
2021/03/05 10:37:32;;;;;;;3.63;1.17;;;5.80;63.60;4.70;102826.00;;;;4968962;28;20142;-78
2021/03/05 10:40:00;;;;;;;4.53;1.35;;;5.80;60.90;4.80;102841.00;;;;4971670;28;20065;-77
2021/03/05 10:42:28;;;;;;;7.68;1.40;;;5.90;59.70;4.80;102838.00;;;;4973227;28;20050;-77
2021/03/05 10:44:54;;;;;;;4.78;1.65;;;5.90;63.30;4.80;102833.00;;;;4974938;28;20153;-77
2021/03/05 10:47:22;;;;;;;4.13;1.20;;;6.00;63.90;4.90;102833.00;;;;4971845;28;20038;-78
2021/03/05 10:49:49;;;;;;;7.00;1.63;;;6.00;63.70;5.00;102839.00;;;;4973516;28;20495;-77
2021/03/05 10:52:19;;;;;;;1.77;1.08;;;6.20;61.30;5.10;102849.00;;;;4969991;28;20424;-78
2021/03/05 10:54:46;;;;;;;4.03;1.35;;;6.20;60.50;5.10;102851.00;;;;4986879;28;20046;-78
2021/03/05 10:57:15;;;;;;;7.20;1.55;;;6.20;61.60;5.10;102851.00;;;;4980341;28;20034;-79
2021/03/05 10:59:42;;;;;;;3.47;1.35;;;6.30;63.30;5.30;102859.00;;;;4969969;28;20603;-78
2021/03/05 11:02:09;;;;;;;4.38;1.15;;;;;5.30;102850.00;;;;4975865;28;20043;-78
2021/03/05 11:04:35;;;;;;;3.28;1.20;;;6.40;60.80;5.30;102854.00;;;;4986634;28;20720;-79
2021/03/05 11:07:02;;;;;;;3.78;1.30;;;6.50;59.70;5.40;102848.00;;;;4977629;28;20046;-77
2021/03/05 11:09:28;;;;;;;4.13;1.63;;;6.50;62.20;5.40;102861.00;;;;4971550;28;20046;-77
2021/03/05 11:11:56;;;;;;;4.20;1.70;;;6.50;60.00;5.50;102857.00;;;;4973788;28;20039;-77